createdAt,value
2022-08-22T00:01:39.819Z,0.82
2022-08-22T00:03:01.814Z,1.90
2022-08-22T00:03:08.632Z,2.55
2022-08-22T00:03:11.932Z,0.90
2022-08-22T00:04:55.486Z,0.75
2022-08-22T00:07:50.759Z,0.90
2022-08-22T00:10:31.465Z,1.20
2022-08-22T00:13:19.774Z,0.90
2022-08-22T00:16:24.575Z,0.57
2022-08-22T00:19:43.385Z,1.15
2022-08-22T00:22:49.480Z,0.50
2022-08-22T00:25:53.271Z,0.60
2022-08-22T00:28:53.423Z,1.23
2022-08-22T00:31:35.710Z,0.57
2022-08-22T00:37:19.167Z,0.57
2022-08-22T00:40:28.727Z,0.80
2022-08-22T00:43:23.494Z,1.70
2022-08-22T00:46:24.130Z,1.10
2022-08-22T00:49:29.122Z,0.77
2022-08-22T00:52:55.049Z,0.70
2022-08-22T00:55:53.482Z,1.40
2022-08-22T00:58:49.508Z,0.70
2022-08-22T01:01:31.784Z,1.33
2022-08-22T01:07:03.309Z,1.30
2022-08-22T01:09:51.638Z,1.05
2022-08-22T01:12:56.366Z,1.85
2022-08-22T01:15:30.426Z,1.52
2022-08-22T01:18:15.441Z,1.50
2022-08-22T01:21:44.947Z,1.42
2022-08-22T01:25:06.677Z,1.70
2022-08-22T01:28:19.771Z,1.20
2022-08-22T01:31:16.135Z,0.68
2022-08-22T01:34:19.177Z,1.60
2022-08-22T01:39:41.859Z,0.80
2022-08-22T01:42:48.195Z,1.05
2022-08-22T01:45:31.255Z,0.98
2022-08-22T01:48:18.163Z,0.93
2022-08-22T01:50:58.354Z,1.08
2022-08-22T01:53:54.333Z,1.10
2022-08-22T01:56:25.834Z,0.82
2022-08-22T01:59:05.896Z,1.55
2022-08-22T02:01:50.994Z,0.75
2022-08-22T02:05:01.006Z,0.77
2022-08-22T02:07:59.410Z,1.65
2022-08-22T02:11:03.927Z,0.50
2022-08-22T02:13:56.454Z,0.52
2022-08-22T02:16:38.656Z,1.40
2022-08-22T02:20:00.636Z,0.63
2022-08-22T02:22:36.571Z,0.60
2022-08-22T02:25:28.802Z,1.27
2022-08-22T02:28:28.007Z,1.20
2022-08-22T02:31:17.102Z,1.48
2022-08-22T02:33:56.849Z,1.65
2022-08-22T02:37:07.499Z,0.57
2022-08-22T02:40:08.786Z,1.10
2022-08-22T02:43:27.396Z,0.70
2022-08-22T02:46:12.021Z,0.52
2022-08-22T02:49:02.484Z,0.70
2022-08-22T02:52:16.923Z,0.95
2022-08-22T02:55:08.858Z,1.05
2022-08-22T02:57:52.621Z,0.60
2022-08-22T03:00:30.665Z,0.52
2022-08-22T03:03:05.361Z,0.85
2022-08-22T03:05:38.808Z,0.70
2022-08-22T03:08:24.050Z,0.93
2022-08-22T03:11:31.459Z,0.50
2022-08-22T03:14:27.510Z,0.68
2022-08-22T03:17:10.773Z,0.50
2022-08-22T03:20:21.653Z,0.40
2022-08-22T03:23:02.427Z,0.60
2022-08-22T03:26:27.713Z,0.43
2022-08-22T03:29:10.001Z,0.85
2022-08-22T03:31:38.061Z,0.43
2022-08-22T03:34:26.625Z,0.85
2022-08-22T03:37:17.912Z,0.82
2022-08-22T03:40:00.943Z,0.52
2022-08-22T03:42:52.742Z,0.45
2022-08-22T03:45:35.085Z,0.87
2022-08-22T03:48:46.062Z,1.00
2022-08-22T03:51:58.497Z,0.50
2022-08-22T03:55:15.130Z,0.47
2022-08-22T03:57:58.093Z,0.45
2022-08-22T04:01:22.504Z,0.70
2022-08-22T04:04:11.669Z,0.43
2022-08-22T04:07:31.517Z,0.98
2022-08-22T04:10:25.213Z,0.75
2022-08-22T04:16:03.389Z,1.17
2022-08-22T04:18:50.042Z,0.50
2022-08-22T04:22:06.717Z,0.93
2022-08-22T04:24:57.470Z,0.88
2022-08-22T04:27:38.654Z,0.70
2022-08-22T04:30:46.785Z,1.25
2022-08-22T04:33:31.967Z,1.10
2022-08-22T04:36:08.640Z,0.80
2022-08-22T04:38:50.139Z,0.93
2022-08-22T04:41:32.749Z,0.93
2022-08-22T04:44:13.477Z,1.63
2022-08-22T04:46:58.216Z,1.50
2022-08-22T04:49:51.794Z,2.25
2022-08-22T04:52:46.781Z,1.35
2022-08-22T04:55:56.668Z,1.67
2022-08-22T04:58:44.757Z,1.98
2022-08-22T05:01:26.276Z,2.17
2022-08-22T05:04:05.494Z,2.03
2022-08-22T05:06:40.138Z,1.83
2022-08-22T05:09:18.887Z,2.38
2022-08-22T05:11:54.498Z,2.72
2022-08-22T05:14:36.671Z,2.17
2022-08-22T05:17:09.749Z,2.53
2022-08-22T05:19:46.138Z,2.15
2022-08-22T05:22:24.449Z,3.78
2022-08-22T05:25:05.525Z,3.28
2022-08-22T05:27:44.735Z,3.33
2022-08-22T05:30:24.755Z,4.13
2022-08-22T05:33:00.402Z,3.88
2022-08-22T05:35:49.534Z,4.22
2022-08-22T05:38:29.971Z,5.10
2022-08-22T05:41:12.037Z,4.25
2022-08-22T05:43:44.505Z,4.88
2022-08-22T05:46:39.027Z,5.70
2022-08-22T05:49:34.414Z,3.60
2022-08-22T05:52:40.240Z,5.00
2022-08-22T05:55:36.555Z,3.72
2022-08-22T05:58:50.809Z,4.20
2022-08-22T06:01:52.049Z,4.30
2022-08-22T06:04:45.145Z,4.03
2022-08-22T06:07:27.703Z,5.65
2022-08-22T06:13:24.489Z,6.20
2022-08-22T06:16:39.205Z,6.90
2022-08-22T06:19:20.196Z,7.55
2022-08-22T06:21:54.823Z,6.13
2022-08-22T06:24:28.095Z,5.30
2022-08-22T06:27:07.538Z,5.55
2022-08-22T06:29:48.167Z,6.35
2022-08-22T06:32:27.886Z,5.95
2022-08-22T06:35:28.015Z,5.82
2022-08-22T06:38:01.528Z,6.03
2022-08-22T06:40:30.951Z,6.43
2022-08-22T06:42:59.097Z,6.07
2022-08-22T06:45:32.233Z,7.03
2022-08-22T06:48:18.900Z,6.65
2022-08-22T06:50:53.463Z,6.03
2022-08-22T06:53:26.421Z,5.97
2022-08-22T06:56:05.701Z,7.03
2022-08-22T06:58:42.447Z,6.28
2022-08-22T07:01:29.965Z,5.60
2022-08-22T07:04:08.756Z,6.03
2022-08-22T07:06:44.495Z,5.43
2022-08-22T07:09:28.082Z,5.63
2022-08-22T07:11:59.583Z,5.05
2022-08-22T07:14:40.318Z,5.70
2022-08-22T07:17:15.606Z,6.63
2022-08-22T07:19:59.314Z,5.43
2022-08-22T07:22:36.387Z,6.28
2022-08-22T07:25:15.758Z,5.50
2022-08-22T07:28:00.888Z,5.65
2022-08-22T07:30:44.437Z,6.50
2022-08-22T07:33:27.373Z,5.63
2022-08-22T07:36:19.511Z,7.00
2022-08-22T07:39:21.471Z,6.03
2022-08-22T07:42:19.218Z,8.38
2022-08-22T07:45:15.765Z,8.93
2022-08-22T07:48:10.294Z,9.00
2022-08-22T07:50:52.189Z,8.57
2022-08-22T07:53:29.258Z,8.98
2022-08-22T07:56:00.646Z,8.80
2022-08-22T07:58:33.810Z,7.45
2022-08-22T08:01:02.350Z,8.18
2022-08-22T08:03:31.476Z,7.18
2022-08-22T08:06:01.954Z,7.00
2022-08-22T08:08:45.062Z,9.73
2022-08-22T08:11:17.009Z,7.47
2022-08-22T08:13:51.941Z,5.95
2022-08-22T08:16:25.167Z,8.10
2022-08-22T08:18:57.183Z,7.45
2022-08-22T08:21:42.857Z,7.22
2022-08-22T08:24:19.686Z,6.03
2022-08-22T08:27:14.147Z,7.63
2022-08-22T08:29:54.805Z,6.50
2022-08-22T08:32:25.766Z,6.13
2022-08-22T08:34:54.067Z,6.43
2022-08-22T08:37:45.685Z,9.07
2022-08-22T08:40:31.285Z,5.57
2022-08-22T08:43:28.025Z,6.35
2022-08-22T08:46:14.262Z,6.45
2022-08-22T08:49:11.539Z,6.00
2022-08-22T08:52:24.480Z,7.20
2022-08-22T08:55:23.870Z,7.68
2022-08-22T08:58:28.191Z,7.18
2022-08-22T09:01:29.886Z,6.22
2022-08-22T09:04:25.049Z,5.80
2022-08-22T09:07:01.372Z,5.97
2022-08-22T09:10:12.882Z,6.38
2022-08-22T09:13:29.823Z,6.75
2022-08-22T09:16:53.112Z,5.30
2022-08-22T09:19:40.620Z,7.00
2022-08-22T09:22:25.719Z,6.78
2022-08-22T09:25:24.674Z,7.43
2022-08-22T09:28:20.165Z,6.63
2022-08-22T09:31:16.994Z,7.53
2022-08-22T09:34:24.033Z,7.63
2022-08-22T09:37:20.865Z,8.90
2022-08-22T09:40:05.383Z,8.90
2022-08-22T09:43:12.951Z,7.88
2022-08-22T09:46:18.795Z,10.45
2022-08-22T09:49:23.558Z,8.82
2022-08-22T09:52:33.953Z,9.45
2022-08-22T09:55:38.328Z,9.15
2022-08-22T09:59:21.479Z,9.65
2022-08-22T10:02:15.735Z,8.35
2022-08-22T10:04:46.052Z,9.27
2022-08-22T10:07:52.965Z,9.55
2022-08-22T10:11:13.645Z,9.10
2022-08-22T10:14:05.145Z,10.18
2022-08-22T10:17:00.203Z,9.38
2022-08-22T10:19:45.892Z,9.77
2022-08-22T10:23:05.174Z,10.45
2022-08-22T10:25:50.210Z,11.10
2022-08-22T10:28:44.098Z,10.77
2022-08-22T10:31:58.961Z,10.48
2022-08-22T10:34:49.345Z,9.50
2022-08-22T10:37:45.936Z,9.43
2022-08-22T10:40:34.974Z,11.07
2022-08-22T10:43:56.548Z,11.65
2022-08-22T10:46:38.909Z,9.63
2022-08-22T10:49:54.755Z,8.55
2022-08-22T10:52:44.090Z,8.60
2022-08-22T10:55:26.382Z,10.18
2022-08-22T10:58:10.737Z,8.93
2022-08-22T11:00:58.599Z,8.82
2022-08-22T11:03:39.957Z,8.27
2022-08-22T11:06:20.822Z,7.38
2022-08-22T11:09:18.838Z,8.65
2022-08-22T11:12:03.067Z,6.10
2022-08-22T11:14:50.468Z,7.55
2022-08-22T11:18:02.249Z,6.28
2022-08-22T11:20:53.725Z,7.43
2022-08-22T11:24:35.358Z,7.28
2022-08-22T11:27:45.800Z,6.55
2022-08-22T11:30:44.989Z,6.47
2022-08-22T11:33:47.283Z,7.53
2022-08-22T11:36:30.953Z,6.50
2022-08-22T11:39:09.879Z,7.00
2022-08-22T11:42:33.344Z,6.63
2022-08-22T11:45:06.458Z,6.68
2022-08-22T11:47:46.961Z,6.10
2022-08-22T11:50:50.197Z,6.35
2022-08-22T11:53:31.239Z,6.32
2022-08-22T11:56:25.187Z,6.78
2022-08-22T11:59:23.725Z,8.90
2022-08-22T12:02:04.016Z,6.68
2022-08-22T12:04:42.499Z,6.85
2022-08-22T12:07:21.542Z,6.32
2022-08-22T12:09:58.706Z,6.88
2022-08-22T12:12:45.086Z,6.43
2022-08-22T12:15:46.335Z,6.55
2022-08-22T12:19:15.874Z,7.40
2022-08-22T12:22:26.805Z,6.72
2022-08-22T12:25:37.284Z,6.88
2022-08-22T12:29:03.727Z,6.82
2022-08-22T12:32:27.423Z,6.20
2022-08-22T12:35:44.462Z,6.82
2022-08-22T12:38:45.922Z,6.72
2022-08-22T12:41:35.394Z,6.03
2022-08-22T12:44:37.299Z,6.63
2022-08-22T12:47:32.215Z,6.65
2022-08-22T12:50:41.391Z,6.53
2022-08-22T12:53:46.350Z,7.30
2022-08-22T12:56:51.752Z,9.13
2022-08-22T12:59:32.989Z,7.10
2022-08-22T13:02:12.493Z,7.20
2022-08-22T13:04:50.785Z,7.07
2022-08-22T13:07:37.049Z,7.20
2022-08-22T13:10:17.344Z,7.60
2022-08-22T13:12:53.905Z,7.13
2022-08-22T13:15:21.298Z,7.43
2022-08-22T13:17:53.394Z,8.50
2022-08-22T13:20:43.384Z,10.32
2022-08-22T13:23:27.922Z,7.30
2022-08-22T13:26:07.854Z,9.68
2022-08-22T13:28:44.200Z,8.13
2022-08-22T13:31:31.174Z,8.63
2022-08-22T13:34:07.271Z,7.20
2022-08-22T13:36:51.888Z,7.95
2022-08-22T13:39:19.746Z,9.23
2022-08-22T13:41:53.886Z,8.43
2022-08-22T13:44:44.026Z,8.18
2022-08-22T13:47:17.649Z,7.07
2022-08-22T13:49:54.410Z,6.80
2022-08-22T13:52:37.959Z,7.85
2022-08-22T13:55:32.061Z,7.88
2022-08-22T13:58:27.649Z,8.20
2022-08-22T14:01:33.969Z,9.20
2022-08-22T14:04:21.928Z,10.32
2022-08-22T14:07:02.214Z,8.65
2022-08-22T14:09:45.360Z,8.80
2022-08-22T14:12:49.906Z,8.43
2022-08-22T14:15:32.126Z,9.20
2022-08-22T14:18:19.186Z,8.95
2022-08-22T14:20:48.822Z,9.80
2022-08-22T14:23:29.238Z,9.30
2022-08-22T14:25:57.801Z,10.00
2022-08-22T14:28:35.577Z,8.30
2022-08-22T14:31:14.154Z,8.80
2022-08-22T14:33:56.514Z,8.95
2022-08-22T14:36:38.631Z,8.75
2022-08-22T14:39:22.454Z,9.82
2022-08-22T14:42:04.131Z,9.23
2022-08-22T14:44:44.646Z,8.52
2022-08-22T14:47:54.552Z,9.07
2022-08-22T14:50:42.246Z,8.52
2022-08-22T14:53:24.945Z,8.77
2022-08-22T14:56:18.010Z,8.93
2022-08-22T14:59:37.127Z,9.25
2022-08-22T15:02:17.127Z,10.13
2022-08-22T15:04:50.231Z,9.25
2022-08-22T15:07:36.516Z,9.15
2022-08-22T15:10:31.898Z,10.90
2022-08-22T15:13:08.040Z,11.27
2022-08-22T15:15:52.909Z,10.32
2022-08-22T15:18:28.431Z,10.75
2022-08-22T15:21:11.299Z,8.63
2022-08-22T15:23:44.999Z,9.15
2022-08-22T15:26:25.697Z,9.75
2022-08-22T15:29:04.325Z,10.60
2022-08-22T15:31:32.103Z,9.85
2022-08-22T15:34:41.802Z,9.40
2022-08-22T15:37:18.340Z,11.02
2022-08-22T15:40:31.262Z,9.70
2022-08-22T15:43:13.097Z,9.52
2022-08-22T15:45:43.681Z,9.93
2022-08-22T15:48:31.104Z,10.25
2022-08-22T15:51:13.446Z,12.30
2022-08-22T15:53:43.650Z,11.25
2022-08-22T15:56:10.917Z,12.23
2022-08-22T15:58:48.079Z,12.45
2022-08-22T16:01:22.195Z,14.15
2022-08-22T16:04:14.230Z,13.57
2022-08-22T16:06:53.985Z,13.23
2022-08-22T16:09:47.349Z,12.25
2022-08-22T16:12:36.628Z,11.90
2022-08-22T16:15:56.348Z,13.38
2022-08-22T16:18:33.599Z,11.52
2022-08-22T16:21:20.910Z,16.02
2022-08-22T16:23:51.414Z,11.55
2022-08-22T16:26:30.573Z,11.48
2022-08-22T16:29:13.460Z,10.80
2022-08-22T16:31:44.444Z,11.55
2022-08-22T16:34:18.213Z,12.43
2022-08-22T16:37:18.029Z,13.07
2022-08-22T16:39:59.022Z,10.82
2022-08-22T16:42:36.705Z,12.57
2022-08-22T16:45:07.256Z,12.13
2022-08-22T16:47:37.046Z,10.70
2022-08-22T16:50:07.530Z,10.80
2022-08-22T16:52:50.618Z,10.82
2022-08-22T16:55:30.274Z,11.93
2022-08-22T16:58:07.080Z,10.88
2022-08-22T17:00:58.031Z,12.02
2022-08-22T17:03:37.611Z,12.60
2022-08-22T17:06:23.182Z,13.18
2022-08-22T17:09:41.228Z,12.45
2022-08-22T17:12:55.279Z,11.88
2022-08-22T17:16:00.317Z,11.45
2022-08-22T17:18:58.226Z,13.63
2022-08-22T17:22:08.905Z,16.48
2022-08-22T17:24:50.856Z,15.30
2022-08-22T17:27:42.385Z,14.85
2022-08-22T17:30:24.274Z,16.15
2022-08-22T17:33:28.520Z,13.60
2022-08-22T17:36:27.017Z,13.73
2022-08-22T17:39:19.053Z,13.73
2022-08-22T17:42:08.488Z,14.77
2022-08-22T17:45:10.900Z,14.63
2022-08-22T17:47:52.763Z,13.43
2022-08-22T17:50:39.918Z,14.15
2022-08-22T17:53:28.742Z,14.75
2022-08-22T17:56:32.960Z,17.27
2022-08-22T17:59:06.725Z,17.58
2022-08-22T18:01:48.548Z,15.98
2022-08-22T18:04:47.324Z,14.20
2022-08-22T18:07:15.173Z,16.65
2022-08-22T18:10:06.841Z,14.00
2022-08-22T18:12:48.157Z,14.30
2022-08-22T18:15:32.167Z,15.02
2022-08-22T18:18:13.015Z,14.70
2022-08-22T18:21:10.927Z,15.02
2022-08-22T18:23:49.050Z,13.60
2022-08-22T18:26:44.389Z,13.32
2022-08-22T18:29:31.554Z,12.55
2022-08-22T18:32:14.395Z,12.02
2022-08-22T18:35:10.182Z,11.95
2022-08-22T18:37:59.626Z,11.55
2022-08-22T18:40:33.404Z,13.02
2022-08-22T18:43:29.804Z,11.75
2022-08-22T18:46:04.303Z,11.55
2022-08-22T18:48:59.517Z,13.88
2022-08-22T18:51:38.928Z,13.25
2022-08-22T18:54:09.057Z,13.38
2022-08-22T18:57:06.798Z,11.90
2022-08-22T18:59:54.111Z,12.45
2022-08-22T19:03:15.744Z,11.98
2022-08-22T19:06:07.882Z,10.82
2022-08-22T19:09:02.877Z,9.68
2022-08-22T19:11:42.201Z,9.85
2022-08-22T19:14:27.106Z,11.35
2022-08-22T19:17:32.178Z,10.52
2022-08-22T19:20:26.172Z,10.75
2022-08-22T19:23:37.452Z,10.35
2022-08-22T19:26:44.703Z,8.50
2022-08-22T19:29:16.060Z,8.27
2022-08-22T19:31:53.537Z,7.88
2022-08-22T19:34:31.009Z,9.23
2022-08-22T19:37:32.016Z,9.05
2022-08-22T19:40:09.226Z,8.38
2022-08-22T19:42:41.465Z,7.90
2022-08-22T19:45:25.601Z,8.18
2022-08-22T19:48:14.733Z,7.65
2022-08-22T19:50:43.559Z,8.77
2022-08-22T19:53:35.093Z,6.57
2022-08-22T19:56:34.061Z,6.85
2022-08-22T19:59:13.594Z,7.88
2022-08-22T20:02:24.965Z,7.70
2022-08-22T20:05:37.131Z,8.18
2022-08-22T20:08:31.095Z,8.52
2022-08-22T20:11:28.361Z,7.07
2022-08-22T20:14:30.254Z,6.53
2022-08-22T20:17:10.379Z,6.38
2022-08-22T20:22:39.253Z,7.22
2022-08-22T20:25:17.029Z,6.40
2022-08-22T20:28:06.521Z,6.38
2022-08-22T20:30:43.646Z,6.38
2022-08-22T20:33:25.309Z,5.40
2022-08-22T20:35:59.158Z,6.55
2022-08-22T20:38:43.056Z,7.35
2022-08-22T20:41:38.907Z,5.85
2022-08-22T20:44:18.464Z,6.82
2022-08-22T20:46:53.421Z,6.05
2022-08-22T20:49:34.609Z,5.00
2022-08-22T20:52:09.741Z,7.57
2022-08-22T20:54:41.269Z,5.55
2022-08-22T20:57:18.625Z,6.53
2022-08-22T21:00:11.591Z,5.70
2022-08-22T21:02:56.985Z,6.60
2022-08-22T21:05:34.410Z,6.10
2022-08-22T21:08:04.690Z,5.63
2022-08-22T21:10:56.050Z,5.47
2022-08-22T21:13:32.787Z,6.13
2022-08-22T21:16:12.867Z,6.13
2022-08-22T21:18:47.885Z,6.35
2022-08-22T21:21:29.227Z,5.20
2022-08-22T21:24:06.979Z,4.90
2022-08-22T21:26:47.433Z,5.45
2022-08-22T21:29:14.402Z,5.00
2022-08-22T21:32:10.259Z,5.05
2022-08-22T21:34:48.490Z,6.13
2022-08-22T21:37:31.923Z,4.55
2022-08-22T21:40:15.247Z,5.78
2022-08-22T21:43:00.408Z,6.72
2022-08-22T21:45:39.359Z,5.60
2022-08-22T21:48:45.153Z,3.80
2022-08-22T21:51:45.871Z,4.25
2022-08-22T21:54:42.458Z,6.15
2022-08-22T21:57:09.659Z,4.15
2022-08-22T21:59:51.918Z,4.45
2022-08-22T22:02:37.378Z,3.75
2022-08-22T22:05:11.422Z,4.47
2022-08-22T22:07:45.441Z,3.95
2022-08-22T22:10:17.375Z,5.10
2022-08-22T22:12:48.475Z,3.90
2022-08-22T22:15:20.543Z,3.92
2022-08-22T22:17:48.129Z,3.15
2022-08-22T22:20:18.430Z,3.38
2022-08-22T22:22:47.062Z,3.85
2022-08-22T22:25:40.233Z,3.70
2022-08-22T22:28:14.815Z,4.03
2022-08-22T22:30:45.001Z,3.38
2022-08-22T22:33:12.762Z,4.93
2022-08-22T22:35:41.186Z,3.60
2022-08-22T22:38:09.402Z,5.05
2022-08-22T22:40:36.770Z,3.78
2022-08-22T22:43:04.410Z,4.00
2022-08-22T22:45:31.661Z,3.33
2022-08-22T22:47:59.209Z,3.45
2022-08-22T22:50:26.818Z,3.55
2022-08-22T22:52:54.225Z,4.03
2022-08-22T22:55:24.769Z,3.67
2022-08-22T22:57:58.544Z,2.80
2022-08-22T23:00:33.842Z,2.70
2022-08-22T23:03:04.027Z,2.78
2022-08-22T23:05:33.133Z,3.97
2022-08-22T23:08:01.229Z,3.20
2022-08-22T23:10:31.159Z,4.38
2022-08-22T23:12:59.121Z,2.95
2022-08-22T23:15:26.801Z,3.67
2022-08-22T23:17:54.228Z,2.90
2022-08-22T23:20:22.961Z,2.50
2022-08-22T23:22:50.440Z,3.25
2022-08-22T23:25:18.085Z,2.95
2022-08-22T23:27:48.790Z,3.95
2022-08-22T23:30:21.393Z,2.72
2022-08-22T23:32:48.793Z,3.08
2022-08-22T23:35:15.950Z,3.00
2022-08-22T23:37:43.651Z,2.65
2022-08-22T23:40:11.569Z,3.70
2022-08-22T23:42:39.205Z,3.75
2022-08-22T23:45:06.625Z,2.83
2022-08-22T23:47:33.932Z,2.80
2022-08-22T23:50:05.968Z,2.80
2022-08-22T23:52:34.162Z,2.53
2022-08-22T23:55:02.422Z,2.58
2022-08-22T23:57:29.611Z,3.10
2022-08-22T23:59:57.669Z,2.60
